Time;durP1;ratioP1;P1;durP2;ratioP2;P2;SDS_P1;SDS_P2;PMS_P1;PMS_P2;Temp;Humidity;BMP_temperature;BMP_pressure;BME280_temperature;BME280_humidity;BME280_pressure;Samples;Min_cycle;Max_cycle;Signal;HPM_P1;HPM_P2
2022/05/19 00:00:23;;;;;;;4.50;2.90;;;18.20;88.70;;;;;;5029746;28;20037;-79
2022/05/19 00:02:49;;;;;;;6.53;3.00;;;18.10;90.00;;;;;;5032329;28;20466;-78
2022/05/19 00:05:15;;;;;;;5.72;3.10;;;18.10;90.20;;;;;;5031809;28;20389;-73
2022/05/19 00:07:41;;;;;;;5.30;2.70;;;18.00;90.70;;;;;;5031717;28;20037;-77
2022/05/19 00:10:07;;;;;;;6.55;3.40;;;17.90;90.50;;;;;;5031839;28;20482;-77
2022/05/19 00:12:33;;;;;;;5.55;3.10;;;17.80;90.50;;;;;;5031002;28;20042;-78
2022/05/19 00:14:58;;;;;;;5.25;3.30;;;17.80;90.30;;;;;;5031834;28;20037;-77
2022/05/19 00:17:24;;;;;;;7.57;3.13;;;17.80;90.80;;;;;;5030969;28;20103;-77
2022/05/19 00:19:50;;;;;;;5.38;3.13;;;17.80;90.50;;;;;;5029765;28;20041;-75
2022/05/19 00:22:16;;;;;;;8.70;2.97;;;17.80;90.60;;;;;;5031860;28;20454;-72
2022/05/19 00:24:42;;;;;;;3.88;2.75;;;17.90;90.20;;;;;;5032488;28;20052;-78
2022/05/19 00:27:08;;;;;;;6.78;2.85;;;17.90;90.20;;;;;;5030505;28;20033;-77
2022/05/19 00:29:33;;;;;;;8.50;3.25;;;17.90;90.00;;;;;;5029550;28;20041;-77
2022/05/19 00:31:59;;;;;;;7.60;3.13;;;17.90;90.30;;;;;;5032709;28;20044;-78
2022/05/19 00:34:25;;;;;;;8.75;2.95;;;17.80;90.40;;;;;;5029943;28;20125;-79
2022/05/19 00:37:02;;;;;;;11.15;3.25;;;17.80;90.50;;;;;;5031428;28;20381;-76
2022/05/19 00:39:28;;;;;;;8.45;3.42;;;17.80;90.50;;;;;;5029704;28;20071;-75
2022/05/19 00:44:41;;;;;;;8.05;3.28;;;17.70;90.80;;;;;;4999638;28;20095;-78
2022/05/19 00:47:16;;;;;;;6.22;2.80;;;17.70;90.80;;;;;;5029292;28;20036;-78
2022/05/19 00:49:44;;;;;;;6.63;3.22;;;17.60;91.10;;;;;;5030290;28;20030;-76
2022/05/19 00:52:18;;;;;;;6.57;3.58;;;17.50;91.10;;;;;;5031698;28;20033;-77
2022/05/19 00:54:49;;;;;;;6.75;3.63;;;17.60;91.20;;;;;;5030625;28;20542;-77
2022/05/19 00:57:28;;;;;;;9.82;3.00;;;17.50;91.80;;;;;;5030302;28;20056;-74
2022/05/19 01:00:13;;;;;;;5.63;3.10;;;17.40;92.20;;;;;;5029638;28;20029;-77
2022/05/19 01:02:47;;;;;;;5.40;3.38;;;17.20;92.80;;;;;;5029902;28;20026;-75
2022/05/19 01:05:18;;;;;;;8.13;3.40;;;17.10;92.90;;;;;;5031368;28;20030;-77
2022/05/19 01:07:59;;;;;;;5.30;3.63;;;17.00;93.70;;;;;;5030604;28;20025;-76
2022/05/19 01:10:25;;;;;;;5.32;2.95;;;16.80;94.00;;;;;;5030060;28;20045;-77
2022/05/19 01:12:52;;;;;;;10.45;3.15;;;16.70;94.80;;;;;;5030431;28;20079;-79
2022/05/19 01:15:19;;;;;;;7.28;3.33;;;16.60;95.20;;;;;;5030195;28;20394;-72
2022/05/19 01:17:44;;;;;;;8.13;3.33;;;16.50;95.70;;;;;;5013107;28;20498;-77
2022/05/19 01:20:23;;;;;;;5.80;3.47;;;16.30;95.90;;;;;;5010326;28;20041;-75
2022/05/19 01:22:55;;;;;;;6.28;3.85;;;16.20;96.40;;;;;;5030720;28;20493;-75
2022/05/19 01:25:59;;;;;;;9.07;3.90;;;16.10;96.60;;;;;;5028234;28;20034;-73
2022/05/19 01:28:25;;;;;;;8.38;3.60;;;16.00;97.30;;;;;;5011221;28;20462;-77
2022/05/19 01:30:51;;;;;;;9.57;3.38;;;15.90;97.50;;;;;;5026200;28;20121;-77
2022/05/19 01:33:17;;;;;;;5.32;3.42;;;15.90;97.40;;;;;;5031672;28;20133;-77
2022/05/19 01:35:42;;;;;;;7.15;3.90;;;15.90;97.70;;;;;;5026860;28;20033;-78
2022/05/19 01:38:15;;;;;;;6.97;3.83;;;15.90;97.30;;;;;;5029792;28;20770;-78
2022/05/19 01:41:16;;;;;;;10.02;4.78;;;15.90;97.70;;;;;;5028805;28;20088;-77
2022/05/19 01:44:12;;;;;;;9.30;3.75;;;15.80;98.20;;;;;;5025838;28;20038;-78
2022/05/19 01:46:40;;;;;;;6.72;3.88;;;15.70;98.50;;;;;;5029536;28;20029;-78
2022/05/19 01:49:28;;;;;;;8.20;3.78;;;15.50;99.20;;;;;;5028153;28;20045;-77
2022/05/19 01:52:13;;;;;;;7.18;3.97;;;15.40;99.00;;;;;;5028853;28;20040;-78
2022/05/19 01:54:58;;;;;;;7.38;3.95;;;15.40;99.80;;;;;;5029382;28;20812;-76
2022/05/19 01:57:28;;;;;;;6.78;3.95;;;15.30;99.90;;;;;;5028701;28;20064;-77
2022/05/19 02:00:18;;;;;;;6.05;3.78;;;15.10;99.90;;;;;;5030255;28;20037;-78
2022/05/19 02:03:07;;;;;;;13.23;4.30;;;15.10;99.90;;;;;;5021484;28;20397;-74
2022/05/19 02:06:04;;;;;;;7.00;4.20;;;15.00;99.90;;;;;;5021535;28;20025;-78
2022/05/19 02:08:42;;;;;;;8.60;4.47;;;15.00;99.90;;;;;;5029970;28;20070;-75
2022/05/19 02:11:13;;;;;;;6.85;4.22;;;14.90;99.90;;;;;;5021314;28;20037;-76
2022/05/19 02:13:39;;;;;;;;;;;14.90;99.90;;;;;;5041803;28;20031;-74
2022/05/19 02:16:07;;;;;;;10.90;3.83;;;14.90;99.90;;;;;;5029499;28;19909;-78
2022/05/19 02:18:33;;;;;;;8.23;4.72;;;14.90;99.90;;;;;;5029671;28;20033;-75
2022/05/19 02:21:03;;;;;;;7.57;4.00;;;14.90;99.90;;;;;;5027674;28;20032;-75
2022/05/19 02:23:32;;;;;;;7.10;3.65;;;15.00;99.90;;;;;;5028827;28;20103;-77
2022/05/19 02:25:58;;;;;;;8.65;4.15;;;14.90;99.90;;;;;;5028879;28;20494;-76
2022/05/19 02:28:33;;;;;;;7.72;3.95;;;14.90;99.90;;;;;;5029161;28;20025;-70
2022/05/19 02:31:00;;;;;;;5.68;3.53;;;15.00;99.90;;;;;;5027467;28;20021;-76
2022/05/19 02:33:26;;;;;;;5.75;3.88;;;15.00;99.90;;;;;;5029424;28;20045;-72
2022/05/19 02:35:52;;;;;;;6.97;3.65;;;15.10;99.80;;;;;;5028883;28;20064;-77
2022/05/19 02:38:20;;;;;;;8.63;3.67;;;15.10;99.50;;;;;;5027644;28;20025;-76
2022/05/19 02:40:46;;;;;;;7.90;3.80;;;15.10;99.50;;;;;;5026049;28;20157;-76
2022/05/19 02:43:13;;;;;;;8.10;3.47;;;15.10;99.30;;;;;;5028191;28;20026;-77
2022/05/19 02:45:39;;;;;;;6.53;3.55;;;15.10;99.50;;;;;;5028058;28;20506;-77
2022/05/19 02:48:07;;;;;;;5.75;3.60;;;15.10;99.30;;;;;;5027440;28;20100;-76
2022/05/19 02:50:33;;;;;;;5.82;3.90;;;15.10;99.10;;;;;;5026810;28;20048;-76
2022/05/19 02:52:59;;;;;;;5.95;3.20;;;15.10;98.70;;;;;;5029006;28;20544;-77
2022/05/19 02:55:25;;;;;;;7.72;3.60;;;15.10;98.30;;;;;;5027135;28;20029;-70
2022/05/19 02:57:51;;;;;;;9.68;3.70;;;15.10;97.40;;;;;;5028853;28;20099;-77
2022/05/19 03:00:20;;;;;;;8.27;3.50;;;15.20;97.60;;;;;;5026607;28;20425;-77
2022/05/19 03:02:46;;;;;;;6.30;3.47;;;15.20;97.90;;;;;;5025501;28;20164;-76
2022/05/19 03:05:15;;;;;;;7.05;3.70;;;15.00;98.40;;;;;;5028088;28;20025;-77
2022/05/19 03:07:41;;;;;;;10.65;3.40;;;14.90;99.00;;;;;;5026645;28;20375;-73
2022/05/19 03:10:07;;;;;;;7.47;4.00;;;14.80;99.20;;;;;;5028935;28;20084;-77
2022/05/19 03:12:33;;;;;;;7.00;4.30;;;14.80;99.90;;;;;;5023627;28;20025;-77
2022/05/19 03:14:59;;;;;;;5.72;3.58;;;14.60;99.90;;;;;;5029063;28;20040;-78
2022/05/19 03:17:25;;;;;;;7.28;3.65;;;14.50;99.90;;;;;;5025132;28;20026;-74
2022/05/19 03:19:55;;;;;;;7.35;3.83;;;14.50;99.90;;;;;;5026060;28;20087;-78
2022/05/19 03:22:21;;;;;;;10.02;4.45;;;14.40;99.90;;;;;;5010424;28;20073;-76
2022/05/19 03:24:47;;;;;;;7.47;4.38;;;14.30;99.90;;;;;;5026085;28;20109;-78
2022/05/19 03:27:13;;;;;;;7.88;3.97;;;14.20;99.90;;;;;;5029308;28;20487;-77
2022/05/19 03:29:39;;;;;;;9.38;4.80;;;14.00;99.90;;;;;;5027898;28;20108;-75
2022/05/19 03:32:05;;;;;;;7.80;4.22;;;13.90;99.90;;;;;;5027875;28;20845;-78
2022/05/19 03:34:31;;;;;;;9.02;4.38;;;13.90;99.90;;;;;;5024287;28;20030;-77
2022/05/19 03:37:03;;;;;;;7.22;4.38;;;13.90;99.90;;;;;;5025716;28;20919;-77
2022/05/19 03:39:28;;;;;;;10.77;4.47;;;13.80;99.90;;;;;;5023283;28;20065;-71
2022/05/19 03:41:54;;;;;;;8.02;4.00;;;14.00;99.90;;;;;;5027736;28;20080;-76
2022/05/19 03:44:20;;;;;;;7.72;4.13;;;14.10;99.90;;;;;;5025856;28;20036;-76
2022/05/19 03:46:45;;;;;;;9.40;4.40;;;14.30;99.90;;;;;;5007222;28;20038;-77
2022/05/19 03:49:13;;;;;;;7.63;4.32;;;14.40;99.90;;;;;;5028443;28;20029;-78
2022/05/19 03:51:41;;;;;;;8.38;4.00;;;14.50;99.90;;;;;;5025713;28;20029;-69
2022/05/19 03:54:06;;;;;;;6.72;3.90;;;14.50;99.90;;;;;;5021949;28;20109;-66
2022/05/19 03:56:33;;;;;;;6.45;3.53;;;14.60;99.90;;;;;;5025093;28;20728;-76
2022/05/19 03:58:59;;;;;;;7.75;4.05;;;14.70;99.90;;;;;;5019639;28;20033;-75
2022/05/19 04:01:25;;;;;;;9.35;3.95;;;14.80;99.50;;;;;;5026112;28;20036;-78
2022/05/19 04:03:51;;;;;;;8.50;3.70;;;15.00;99.20;;;;;;5022890;28;20858;-73
2022/05/19 04:06:17;;;;;;;8.18;3.88;;;15.00;99.30;;;;;;5026245;28;20053;-72
2022/05/19 04:08:44;;;;;;;8.82;3.70;;;15.10;99.10;;;;;;5035302;28;20119;-73
2022/05/19 04:11:10;;;;;;;5.45;3.70;;;15.10;99.00;;;;;;5027475;28;20021;-72
2022/05/19 04:13:36;;;;;;;7.90;3.80;;;15.10;99.10;;;;;;5025645;28;20029;-73
2022/05/19 04:16:02;;;;;;;9.20;4.00;;;15.20;99.20;;;;;;5027561;28;20025;-74
2022/05/19 04:18:28;;;;;;;8.38;3.97;;;15.20;98.60;;;;;;5025832;28;20029;-70
2022/05/19 04:20:55;;;;;;;7.68;4.47;;;15.30;98.10;;;;;;5026347;28;20033;-72
2022/05/19 04:23:21;;;;;;;11.10;4.43;;;15.20;99.90;;;;;;5027240;28;20064;-76
2022/05/19 04:25:48;;;;;;;7.88;4.13;;;15.00;99.80;;;;;;5025743;28;20068;-78
2022/05/19 04:28:14;;;;;;;8.63;4.45;;;15.10;99.00;;;;;;5024786;28;20065;-74
2022/05/19 04:30:41;;;;;;;9.68;4.20;;;15.30;98.30;;;;;;5026819;28;20477;-72
2022/05/19 04:33:07;;;;;;;9.15;4.45;;;15.30;99.30;;;;;;5024694;28;20036;-74
2022/05/19 04:35:34;;;;;;;8.38;3.65;;;15.40;97.90;;;;;;5023844;28;20112;-79
2022/05/19 04:38:12;;;;;;;9.40;4.50;;;15.60;97.50;;;;;;5030345;28;20063;-79
2022/05/19 04:40:39;;;;;;;7.93;4.10;;;15.80;97.80;;;;;;5030455;28;20058;-77
2022/05/19 04:43:06;;;;;;;8.38;3.88;;;15.90;97.20;;;;;;5031809;28;20044;-77
2022/05/19 04:45:32;;;;;;;5.25;3.78;;;16.10;97.80;;;;;;5030827;28;20030;-74
2022/05/19 04:47:58;;;;;;;7.95;3.92;;;16.20;97.00;;;;;;5032189;28;20112;-78
2022/05/19 04:50:24;;;;;;;7.00;3.83;;;16.30;96.20;;;;;;5030616;28;20037;-74
2022/05/19 04:52:49;;;;;;;7.93;4.45;;;16.40;96.30;;;;;;5030758;28;20026;-80
2022/05/19 04:55:15;;;;;;;8.40;3.83;;;16.40;95.10;;;;;;5031591;28;20367;-77
2022/05/19 04:57:43;;;;;;;8.65;3.67;;;16.50;95.40;;;;;;5028794;28;20033;-79
2022/05/19 05:00:12;;;;;;;5.43;3.80;;;16.40;95.50;;;;;;5030853;28;20048;-80
2022/05/19 05:02:38;;;;;;;14.93;4.22;;;16.40;95.10;;;;;;5030429;28;20038;-78
2022/05/19 05:05:05;;;;;;;7.90;3.75;;;16.50;94.70;;;;;;5030376;28;20466;-73
2022/05/19 05:07:31;;;;;;;8.25;4.10;;;16.60;94.60;;;;;;5027171;28;20067;-71
2022/05/19 05:09:57;;;;;;;11.55;4.28;;;16.60;95.80;;;;;;5027915;28;20727;-76
2022/05/19 05:12:23;;;;;;;9.35;3.92;;;16.50;95.80;;;;;;5030473;28;20041;-77
2022/05/19 05:14:48;;;;;;;5.93;3.70;;;16.50;95.40;;;;;;5028100;28;20472;-81
2022/05/19 05:17:15;;;;;;;7.78;4.18;;;16.60;95.70;;;;;;5030876;28;20040;-79
2022/05/19 05:19:41;;;;;;;8.93;4.30;;;16.70;95.20;;;;;;5026701;28;20172;-77
2022/05/19 05:22:07;;;;;;;8.95;4.05;;;16.80;95.70;;;;;;5026153;28;20025;-80
2022/05/19 05:24:33;;;;;;;5.15;3.55;;;16.90;95.90;;;;;;5027569;28;20037;-73
2022/05/19 05:26:59;;;;;;;7.78;3.83;;;16.90;96.50;;;;;;5028038;28;20036;-73
2022/05/19 05:29:25;;;;;;;7.22;4.15;;;16.90;96.00;;;;;;5027028;28;20482;-76
2022/05/19 05:31:50;;;;;;;8.48;4.00;;;16.90;95.90;;;;;;5028288;28;20485;-80
2022/05/19 05:34:16;;;;;;;10.88;4.63;;;17.00;96.70;;;;;;5028648;28;20035;-83
2022/05/19 05:36:42;;;;;;;8.35;4.00;;;17.00;96.20;;;;;;5028135;28;20032;-80
2022/05/19 05:39:08;;;;;;;6.47;4.07;;;17.20;96.20;;;;;;5026616;28;20422;-77
2022/05/19 05:41:33;;;;;;;11.10;4.10;;;17.20;95.60;;;;;;5029181;28;20044;-72
2022/05/19 05:43:59;;;;;;;8.57;4.25;;;17.20;95.60;;;;;;5029003;28;20503;-75
2022/05/19 05:46:25;;;;;;;8.45;3.35;;;17.40;95.90;;;;;;5027853;28;20097;-82
2022/05/19 05:48:51;;;;;;;9.57;3.75;;;17.40;95.40;;;;;;5022308;28;20036;-74
2022/05/19 05:51:18;;;;;;;8.02;3.97;;;17.50;95.80;;;;;;5028754;28;20116;-75
2022/05/19 05:53:45;;;;;;;6.85;3.90;;;17.60;95.50;;;;;;5008860;28;20041;-80
2022/05/19 05:56:14;;;;;;;6.30;3.70;;;17.60;96.00;;;;;;5024486;28;20462;-80
2022/05/19 05:58:40;;;;;;;10.82;4.28;;;17.70;95.70;;;;;;5029133;28;20075;-81
2022/05/19 06:01:08;;;;;;;6.13;3.67;;;17.80;95.80;;;;;;5026655;28;20034;-80
2022/05/19 06:03:35;;;;;;;6.03;3.65;;;17.80;95.10;;;;;;5026926;28;20025;-75
2022/05/19 06:06:01;;;;;;;8.25;3.75;;;17.90;95.60;;;;;;5021604;28;20163;-75
2022/05/19 06:08:27;;;;;;;10.23;4.05;;;18.00;95.80;;;;;;5030721;28;20064;-77
2022/05/19 06:10:53;;;;;;;8.68;3.88;;;18.10;95.80;;;;;;5026108;28;20034;-78
2022/05/19 06:13:19;;;;;;;5.30;3.50;;;18.30;95.10;;;;;;5037350;28;20289;-73
2022/05/19 06:15:46;;;;;;;9.43;3.50;;;18.40;95.10;;;;;;5028739;28;20044;-76
2022/05/19 06:18:12;;;;;;;10.80;3.97;;;18.60;95.00;;;;;;5027641;28;20053;-81
2022/05/19 06:20:38;;;;;;;6.07;3.83;;;18.80;93.80;;;;;;5027025;28;20080;-73
2022/05/19 06:23:05;;;;;;;10.02;4.10;;;18.80;94.40;;;;;;5030606;28;20033;-77
2022/05/19 06:25:32;;;;;;;10.43;3.85;;;19.10;94.50;;;;;;5027993;28;20478;-77
2022/05/19 06:28:00;;;;;;;6.43;3.60;;;19.20;94.00;;;;;;5027345;28;20624;-76
2022/05/19 06:30:26;;;;;;;6.50;3.80;;;19.40;93.40;;;;;;5028532;28;20378;-78
2022/05/19 06:32:52;;;;;;;7.75;3.47;;;19.50;93.30;;;;;;5029585;28;20037;-81
2022/05/19 06:35:21;;;;;;;6.05;3.45;;;19.70;93.00;;;;;;5029845;28;20104;-76
2022/05/19 06:37:47;;;;;;;7.47;3.25;;;20.00;92.70;;;;;;5028381;28;20465;-77
2022/05/19 06:40:15;;;;;;;9.98;3.70;;;20.20;92.10;;;;;;5028990;28;20085;-77
2022/05/19 06:42:40;;;;;;;6.85;3.20;;;20.30;92.50;;;;;;5026899;28;20504;-74
2022/05/19 06:45:07;;;;;;;7.20;3.35;;;20.40;91.70;;;;;;5009673;28;20108;-76
2022/05/19 06:47:33;;;;;;;8.90;3.30;;;20.30;91.90;;;;;;5027838;28;20036;-74
2022/05/19 06:49:59;;;;;;;4.45;3.35;;;20.40;90.80;;;;;;5022195;28;20649;-78
2022/05/19 06:52:28;;;;;;;8.98;3.38;;;20.50;91.40;;;;;;5029318;28;20083;-73
2022/05/19 06:54:56;;;;;;;5.10;3.60;;;20.60;92.40;;;;;;5030691;28;20041;-69
2022/05/19 06:57:24;;;;;;;6.45;3.42;;;20.60;91.10;;;;;;5013013;28;20025;-79
2022/05/19 06:59:51;;;;;;;8.63;3.55;;;20.60;91.60;;;;;;5027424;28;20091;-80
2022/05/19 07:02:19;;;;;;;4.43;3.13;;;20.60;92.50;;;;;;5023420;28;20060;-81
2022/05/19 07:04:44;;;;;;;9.45;3.38;;;20.60;91.60;;;;;;5028561;28;20045;-79
2022/05/19 07:07:11;;;;;;;4.70;3.00;;;20.60;92.20;;;;;;5026162;28;20032;-78
2022/05/19 07:09:38;;;;;;;6.00;3.50;;;20.60;92.10;;;;;;5022859;28;20041;-74
2022/05/19 07:12:05;;;;;;;4.70;3.33;;;20.70;91.10;;;;;;5026022;28;20044;-79
2022/05/19 07:14:32;;;;;;;5.10;3.65;;;20.70;91.30;;;;;;5028339;28;20057;-77
2022/05/19 07:16:57;;;;;;;7.38;3.28;;;20.80;91.20;;;;;;5026060;28;20649;-78
2022/05/19 07:22:20;;;;;;;7.25;3.38;;;21.20;92.10;;;;;;5026336;28;20915;-77
2022/05/19 07:24:46;;;;;;;6.60;3.88;;;21.40;91.00;;;;;;5029019;28;20033;-78
2022/05/19 07:27:12;;;;;;;7.18;3.75;;;21.60;91.60;;;;;;5010729;28;20033;-75
2022/05/19 07:29:39;;;;;;;6.05;3.30;;;21.60;90.30;;;;;;5027210;28;20137;-76
2022/05/19 07:32:05;;;;;;;7.22;3.60;;;21.50;91.30;;;;;;5024446;28;20029;-76
2022/05/19 07:34:33;;;;;;;5.22;3.13;;;21.70;89.00;;;;;;5026888;28;20474;-78
2022/05/19 07:36:59;;;;;;;8.55;4.07;;;22.00;91.20;;;;;;5026854;28;20104;-81
2022/05/19 07:39:24;;;;;;;6.57;3.28;;;22.20;90.20;;;;;;5028421;28;20489;-80
2022/05/19 07:41:53;;;;;;;6.53;4.07;;;22.50;90.00;;;;;;5025775;28;20033;-78
2022/05/19 07:44:19;;;;;;;5.75;3.97;;;22.70;87.30;;;;;;5027514;28;20033;-76
2022/05/19 07:46:45;;;;;;;5.80;3.33;;;22.60;85.70;;;;;;5026797;28;20080;-80
2022/05/19 07:49:11;;;;;;;4.50;3.28;;;22.60;86.80;;;;;;5028589;28;20034;-76
2022/05/19 07:51:40;;;;;;;5.55;3.35;;;22.80;88.90;;;;;;5025258;28;20026;-76
2022/05/19 07:54:11;;;;;;;10.85;4.03;;;23.10;89.10;;;;;;5027814;28;20080;-77
2022/05/19 07:56:39;;;;;;;5.93;3.70;;;23.20;89.20;;;;;;5027479;28;20095;-79
2022/05/19 07:59:05;;;;;;;4.43;3.50;;;23.30;86.10;;;;;;5028599;28;20033;-75
2022/05/19 08:01:31;;;;;;;4.82;3.80;;;23.40;88.00;;;;;;5027757;28;20029;-74
2022/05/19 08:03:58;;;;;;;7.38;3.85;;;23.50;84.40;;;;;;5028273;28;20087;-81
2022/05/19 08:06:24;;;;;;;18.75;3.85;;;23.50;87.60;;;;;;5026206;28;20092;-80
2022/05/19 08:08:50;;;;;;;6.75;4.18;;;23.50;90.40;;;;;;5028057;28;20029;-78
2022/05/19 08:11:16;;;;;;;9.27;3.65;;;23.70;86.10;;;;;;5028200;28;20029;-78
2022/05/19 08:16:26;;;;;;;7.07;3.70;;;23.80;85.60;;;;;;5030706;28;20033;-75
2022/05/19 08:18:51;;;;;;;7.68;3.67;;;23.80;84.50;;;;;;5031454;28;20033;-76
2022/05/19 08:21:18;;;;;;;5.25;3.47;;;23.90;85.00;;;;;;5032052;28;20030;-75
2022/05/19 08:23:46;;;;;;;9.73;4.03;;;23.90;83.80;;;;;;5031072;28;20037;-74
2022/05/19 08:26:12;;;;;;;8.00;3.80;;;24.20;88.80;;;;;;5030249;28;20486;-76
2022/05/19 08:28:41;;;;;;;7.05;3.70;;;24.50;84.60;;;;;;5029091;28;20432;-76
2022/05/19 08:31:10;;;;;;;6.13;3.67;;;24.80;84.20;;;;;;5032248;28;20033;-74
2022/05/19 08:33:38;;;;;;;6.72;4.20;;;24.80;81.70;;;;;;5031665;28;20114;-74
2022/05/19 08:36:05;;;;;;;6.90;4.00;;;24.90;81.40;;;;;;5031764;28;20052;-75
2022/05/19 08:38:31;;;;;;;5.28;3.67;;;25.20;89.10;;;;;;5030791;28;20124;-71
2022/05/19 08:41:31;;;;;;;6.47;4.07;;;25.20;83.90;;;;;;5011282;28;20080;-74
2022/05/19 08:44:29;;;;;;;5.53;3.75;;;25.00;84.90;;;;;;5010235;28;20030;-74
2022/05/19 08:46:57;;;;;;;8.73;3.97;;;25.20;87.10;;;;;;5010198;28;20033;-72
2022/05/19 08:49:38;;;;;;;8.10;3.67;;;25.40;87.80;;;;;;5009595;28;20042;-71
2022/05/19 08:52:10;;;;;;;5.88;3.85;;;25.40;86.50;;;;;;5010181;28;20115;-75
2022/05/19 08:54:39;;;;;;;8.13;4.13;;;25.40;89.20;;;;;;5011096;28;20040;-74
2022/05/19 08:57:07;;;;;;;7.88;4.10;;;25.30;90.00;;;;;;5010560;28;20021;-72
2022/05/19 08:59:57;;;;;;;5.57;3.60;;;25.10;83.60;;;;;;5010880;28;20490;-75
2022/05/19 09:02:40;;;;;;;7.38;4.22;;;25.30;84.00;;;;;;5009174;28;20039;-74
2022/05/19 09:05:41;;;;;;;6.78;4.13;;;25.50;90.10;;;;;;5011653;28;20026;-73
2022/05/19 09:08:40;;;;;;;7.57;3.88;;;25.90;86.50;;;;;;5010010;28;20072;-72
2022/05/19 09:11:19;;;;;;;8.07;4.15;;;25.90;87.30;;;;;;5007151;28;20628;-73
2022/05/19 09:14:20;;;;;;;7.68;4.30;;;25.90;88.50;;;;;;5002295;28;20052;-70
2022/05/19 09:16:47;;;;;;;8.10;4.20;;;25.90;82.30;;;;;;5007168;28;20422;-69
2022/05/19 09:19:29;;;;;;;7.05;4.25;;;25.80;83.50;;;;;;5009033;28;20042;-75
2022/05/19 09:22:11;;;;;;;12.13;4.60;;;25.60;84.70;;;;;;5009393;28;20033;-76
2022/05/19 09:24:37;;;;;;;5.55;3.90;;;25.80;85.40;;;;;;5009009;28;20026;-75
2022/05/19 09:27:04;;;;;;;7.60;3.92;;;26.00;87.20;;;;;;5006957;28;20033;-72
2022/05/19 09:29:45;;;;;;;7.47;4.50;;;26.10;83.60;;;;;;5014510;28;20026;-80
2022/05/19 09:32:18;;;;;;;4.95;3.83;;;26.10;83.20;;;;;;5004081;28;20109;-74
2022/05/19 09:34:50;;;;;;;6.75;4.03;;;26.20;84.40;;;;;;5008738;28;20034;-72
2022/05/19 09:37:18;;;;;;;8.85;4.10;;;26.20;85.80;;;;;;5010775;28;20467;-74
2022/05/19 09:39:58;;;;;;;7.53;4.57;;;26.30;85.60;;;;;;5021169;28;20548;-77
2022/05/19 09:42:34;;;;;;;5.85;3.90;;;26.30;81.60;;;;;;5030553;28;20033;-75
2022/05/19 09:45:00;;;;;;;6.10;4.28;;;26.50;83.60;;;;;;5030441;28;20026;-74
2022/05/19 09:47:33;;;;;;;4.38;3.70;;;26.70;80.90;;;;;;5028689;28;20029;-77
2022/05/19 09:50:22;;;;;;;10.27;4.75;;;26.80;85.00;;;;;;5026692;28;20376;-74
2022/05/19 09:52:48;;;;;;;8.57;4.20;;;26.90;83.30;;;;;;5029740;28;20022;-71
2022/05/19 09:55:19;;;;;;;7.68;3.97;;;26.90;82.10;;;;;;5030508;28;20099;-71
2022/05/19 09:57:53;;;;;;;7.07;3.92;;;27.10;85.90;;;;;;5029704;28;20017;-72
2022/05/19 10:00:32;;;;;;;9.45;3.85;;;27.00;79.80;;;;;;5023935;28;20048;-72
2022/05/19 10:03:00;;;;;;;6.65;4.40;;;27.00;86.10;;;;;;5028181;28;20057;-70
2022/05/19 10:05:46;;;;;;;7.40;4.00;;;27.20;83.30;;;;;;5028996;28;20029;-75
2022/05/19 10:08:20;;;;;;;6.18;3.95;;;27.10;80.30;;;;;;5010467;28;20144;-76
2022/05/19 10:10:55;;;;;;;13.23;4.40;;;27.20;84.10;;;;;;5025795;28;20042;-72
2022/05/19 10:13:32;;;;;;;6.63;4.55;;;27.20;85.50;;;;;;5028240;28;20037;-73
2022/05/19 10:16:07;;;;;;;8.00;4.00;;;27.20;82.10;;;;;;5049141;28;20025;-75
2022/05/19 10:18:45;;;;;;;6.20;3.97;;;27.30;84.50;;;;;;5040308;28;20029;-72
2022/05/19 10:21:38;;;;;;;5.90;4.20;;;27.30;83.00;;;;;;5025613;28;20701;-73
2022/05/19 10:24:23;;;;;;;4.95;4.03;;;27.50;81.50;;;;;;5028848;28;20033;-74
2022/05/19 10:33:13;;;;;;;5.20;4.30;;;27.90;80.10;;;;;;5023675;28;20080;-71
2022/05/19 10:35:47;;;;;;;9.13;4.07;;;28.30;80.50;;;;;;5010132;28;20077;-72
2022/05/19 10:38:24;;;;;;;9.07;4.28;;;28.50;78.20;;;;;;5011289;28;20535;-71
2022/05/19 10:40:50;;;;;;;6.95;4.22;;;28.60;77.80;;;;;;5010335;28;20060;-72
2022/05/19 10:43:18;;;;;;;6.35;4.47;;;28.40;77.10;;;;;;5024650;28;20021;-71
2022/05/19 10:45:48;;;;;;;8.40;3.97;;;28.40;78.40;;;;;;5030000;28;20029;-73
2022/05/19 10:48:52;;;;;;;7.07;3.75;;;28.60;78.20;;;;;;5028460;28;20037;-72
2022/05/19 10:51:31;;;;;;;8.07;4.40;;;28.70;79.60;;;;;;4929314;29;20087;-73
2022/05/19 10:54:08;;;;;;;5.60;4.18;;;28.70;79.50;;;;;;5016717;28;20065;-73
2022/05/19 10:57:01;;;;;;;5.95;3.80;;;28.70;77.20;;;;;;5013451;28;20045;-70
2022/05/19 11:00:05;;;;;;;6.00;3.70;;;29.10;69.70;;;;;;5027830;28;20597;-75
2022/05/19 11:02:53;;;;;;;8.95;3.88;;;28.70;71.60;;;;;;5028093;28;20030;-74
2022/05/19 11:05:49;;;;;;;5.47;4.38;;;28.70;74.30;;;;;;5026592;28;20029;-73
2022/05/19 11:08:49;;;;;;;7.07;4.78;;;28.60;75.40;;;;;;5028010;28;20029;-71
2022/05/19 11:11:18;;;;;;;;;;;28.30;74.70;;;;;;5010500;28;20053;-71
2022/05/19 11:13:56;;;;;;;9.27;4.32;;;28.10;74.90;;;;;;5026812;28;19909;-71
2022/05/19 11:16:48;;;;;;;5.80;3.92;;;28.30;78.80;;;;;;5028615;28;20367;-72
2022/05/19 11:19:36;;;;;;;8.02;4.18;;;28.50;76.60;;;;;;5029184;28;20094;-72
2022/05/19 11:22:10;;;;;;;10.65;4.30;;;28.30;72.20;;;;;;5026111;28;20060;-71
2022/05/19 11:27:40;;;;;;;9.63;4.35;;;28.40;78.70;;;;;;5024383;28;20124;-71
2022/05/19 11:30:16;;;;;;;6.55;4.30;;;28.70;77.00;;;;;;5026909;28;20107;-73
2022/05/19 11:32:43;;;;;;;6.22;3.83;;;28.70;75.30;;;;;;5027518;28;20048;-70
2022/05/19 11:35:15;;;;;;;6.80;4.00;;;28.60;77.30;;;;;;5026466;28;20025;-72
2022/05/19 11:37:57;;;;;;;8.88;4.07;;;28.70;76.30;;;;;;5018734;28;20017;-72
2022/05/19 11:40:30;;;;;;;6.68;4.57;;;28.60;74.50;;;;;;5028594;28;20049;-75
2022/05/19 11:43:17;;;;;;;9.15;4.55;;;28.90;78.20;;;;;;5019719;28;20038;-69
2022/05/19 11:45:58;;;;;;;6.38;4.10;;;28.90;72.70;;;;;;5028128;28;20164;-75
2022/05/19 11:57:17;;;;;;;5.60;3.50;;;29.10;76.50;;;;;;5025828;28;20052;-73
2022/05/19 11:59:52;;;;;;;5.43;3.60;;;29.30;70.50;;;;;;5009495;28;20537;-72
2022/05/19 12:02:26;;;;;;;7.15;3.88;;;29.60;74.50;;;;;;5025870;28;20049;-75
2022/05/19 12:04:58;;;;;;;8.95;3.78;;;29.50;69.60;;;;;;5028410;28;20053;-71
2022/05/19 12:07:43;;;;;;;6.75;3.85;;;29.40;67.70;;;;;;5028536;28;20041;-73
2022/05/19 12:10:11;;;;;;;10.35;3.70;;;29.30;71.40;;;;;;5028148;28;20136;-72
2022/05/19 12:12:40;;;;;;;9.52;3.70;;;29.50;70.10;;;;;;5027756;28;20029;-75
2022/05/19 12:15:16;;;;;;;6.17;3.67;;;29.70;69.60;;;;;;5026924;28;20421;-71
2022/05/19 12:17:45;;;;;;;6.78;3.88;;;29.50;68.20;;;;;;5027723;28;20025;-71
2022/05/19 12:20:32;;;;;;;7.68;4.00;;;29.30;69.50;;;;;;5027156;28;20033;-72
2022/05/19 12:23:15;;;;;;;8.60;4.30;;;29.40;72.00;;;;;;5025824;28;20116;-71
2022/05/19 12:25:48;;;;;;;6.65;3.75;;;29.30;71.10;;;;;;5011059;28;20041;-74
2022/05/19 12:28:20;;;;;;;7.82;3.55;;;29.30;71.60;;;;;;5024767;28;20041;-74
2022/05/19 12:33:56;;;;;;;5.10;3.40;;;29.10;69.00;;;;;;5028022;28;20079;-74
2022/05/19 12:36:41;;;;;;;7.43;3.58;;;29.30;71.30;;;;;;5027498;28;20121;-76
2022/05/19 12:39:29;;;;;;;8.23;3.85;;;29.40;66.00;;;;;;5024649;28;20045;-78
2022/05/19 12:42:18;;;;;;;6.65;3.38;;;29.30;68.60;;;;;;5009112;28;20079;-74
2022/05/19 12:44:53;;;;;;;5.30;3.50;;;29.30;68.10;;;;;;5013042;28;20100;-74
2022/05/19 12:47:30;;;;;;;9.32;3.50;;;29.40;65.90;;;;;;5026935;28;20185;-78
2022/05/19 12:50:06;;;;;;;7.35;3.30;;;29.50;65.90;;;;;;5027780;28;20029;-70
2022/05/19 12:53:13;;;;;;;7.78;4.30;;;29.90;68.00;;;;;;5027340;28;20037;-71
2022/05/19 12:55:44;;;;;;;7.55;3.90;;;29.90;66.00;;;;;;5027616;28;20107;-72
2022/05/19 12:58:39;;;;;;;6.65;3.97;;;29.80;68.00;;;;;;5028868;28;20030;-72
2022/05/19 13:01:31;;;;;;;11.45;4.00;;;29.80;70.10;;;;;;5027852;28;20033;-73
2022/05/19 13:04:05;;;;;;;6.30;3.95;;;30.20;65.20;;;;;;5029644;28;20438;-72
2022/05/19 13:06:33;;;;;;;6.38;3.80;;;30.30;59.90;;;;;;5031333;28;20025;-72
2022/05/19 13:09:04;;;;;;;5.85;4.22;;;30.50;61.80;;;;;;5029605;28;20095;-71
2022/05/19 13:11:35;;;;;;;8.32;3.78;;;30.70;62.40;;;;;;5031984;28;20043;-74
2022/05/19 13:14:06;;;;;;;5.18;3.47;;;30.90;62.90;;;;;;5029385;28;20029;-72
2022/05/19 13:16:45;;;;;;;5.25;4.10;;;30.80;60.50;;;;;;5026623;28;20034;-71
2022/05/19 13:19:26;;;;;;;7.43;4.43;;;30.70;67.20;;;;;;5026387;28;20030;-74
2022/05/19 13:22:06;;;;;;;6.50;4.38;;;30.60;67.60;;;;;;5029877;28;20478;-73
2022/05/19 13:24:41;;;;;;;9.15;4.78;;;30.60;68.60;;;;;;5028020;28;20433;-74
2022/05/19 13:32:39;;;;;;;6.88;4.30;;;30.70;63.90;;;;;;5026228;28;20084;-75
2022/05/19 13:35:14;;;;;;;5.88;4.32;;;30.70;65.90;;;;;;5024279;28;20057;-74
2022/05/19 13:37:42;;;;;;;4.97;4.30;;;30.50;64.10;;;;;;5029469;28;20482;-75
2022/05/19 13:40:29;;;;;;;5.63;4.43;;;30.40;63.40;;;;;;5026633;28;20053;-73
2022/05/19 13:43:01;;;;;;;6.53;4.25;;;30.50;64.10;;;;;;5028292;28;20075;-72